createdAt,value
2022-09-12T00:01:21.288Z,14.64
2022-09-12T00:03:52.193Z,14.56
2022-09-12T00:06:23.314Z,14.51
2022-09-12T00:08:51.840Z,14.53
2022-09-12T00:11:19.904Z,14.50
2022-09-12T00:13:48.340Z,14.52
2022-09-12T00:16:20.259Z,14.50
2022-09-12T00:18:48.620Z,14.52
2022-09-12T00:21:17.723Z,14.53
2022-09-12T00:23:46.706Z,14.43
2022-09-12T00:26:15.079Z,14.40
2022-09-12T00:28:43.456Z,14.45
2022-09-12T00:31:14.373Z,14.44
2022-09-12T00:33:44.889Z,14.41
2022-09-12T00:36:16.187Z,14.45
2022-09-12T00:38:45.340Z,14.45
2022-09-12T00:41:18.493Z,14.41
2022-09-12T00:43:48.390Z,14.39
2022-09-12T00:46:27.543Z,14.32
2022-09-12T00:49:00.868Z,14.35
2022-09-12T00:51:31.817Z,14.30
2022-09-12T00:54:04.082Z,14.30
2022-09-12T00:56:32.439Z,14.33
2022-09-12T00:59:05.732Z,14.26
2022-09-12T01:01:33.887Z,14.19
2022-09-12T01:04:04.344Z,14.25
2022-09-12T01:06:37.348Z,14.29
2022-09-12T01:09:06.480Z,14.28
2022-09-12T01:11:38.137Z,14.22
2022-09-12T01:14:06.763Z,14.23
2022-09-12T01:16:37.535Z,14.20
2022-09-12T01:19:26.555Z,14.21
2022-09-12T01:22:08.987Z,14.16
2022-09-12T01:25:09.462Z,14.20
2022-09-12T01:27:48.003Z,14.17
2022-09-12T01:30:26.702Z,14.09
2022-09-12T01:33:20.895Z,14.11
2022-09-12T01:36:05.447Z,14.11
2022-09-12T01:38:40.337Z,14.02
2022-09-12T01:41:16.908Z,14.01
2022-09-12T01:43:51.963Z,13.97
2022-09-12T01:46:29.871Z,13.97
2022-09-12T01:49:03.551Z,13.90
2022-09-12T01:51:36.771Z,13.91
2022-09-12T01:54:08.131Z,13.92
2022-09-12T01:56:39.279Z,13.88
2022-09-12T01:59:13.951Z,13.86
2022-09-12T02:01:48.500Z,13.83
2022-09-12T02:04:21.140Z,13.79
2022-09-12T02:06:53.017Z,13.82
2022-09-12T02:09:25.114Z,13.87
2022-09-12T02:11:57.547Z,13.78
2022-09-12T02:14:28.911Z,13.82
2022-09-12T02:17:02.398Z,13.87
2022-09-12T02:19:38.340Z,13.81
2022-09-12T02:22:07.907Z,13.82
2022-09-12T02:24:39.828Z,13.82
2022-09-12T02:27:13.925Z,13.72
2022-09-12T02:29:43.636Z,13.74
2022-09-12T02:32:22.225Z,13.80
2022-09-12T02:34:59.731Z,13.83
2022-09-12T02:37:38.544Z,13.82
2022-09-12T02:40:08.983Z,13.78
2022-09-12T02:42:37.411Z,13.89
2022-09-12T02:45:06.372Z,13.80
2022-09-12T02:47:39.472Z,13.80
2022-09-12T02:50:09.202Z,13.70
2022-09-12T02:52:37.899Z,13.73
2022-09-12T02:55:08.295Z,13.73
2022-09-12T02:57:36.605Z,13.65
2022-09-12T03:00:06.541Z,13.55
2022-09-12T03:02:55.735Z,13.59
2022-09-12T03:05:33.039Z,13.63
2022-09-12T03:08:14.173Z,13.59
2022-09-12T03:11:00.220Z,13.60
2022-09-12T03:13:34.176Z,13.66
2022-09-12T03:16:13.438Z,13.72
2022-09-12T03:18:53.058Z,13.62
2022-09-12T03:21:29.280Z,13.68
2022-09-12T03:24:12.459Z,13.64
2022-09-12T03:26:45.756Z,13.59
2022-09-12T03:29:15.109Z,13.55
2022-09-12T03:31:51.416Z,13.62
2022-09-12T03:34:22.076Z,13.64
2022-09-12T03:36:50.428Z,13.59
2022-09-12T03:39:18.594Z,13.62
2022-09-12T03:41:46.663Z,13.60
2022-09-12T03:44:14.738Z,13.58
2022-09-12T03:46:42.763Z,13.59
2022-09-12T03:49:11.218Z,13.45
2022-09-12T03:51:41.240Z,13.62
2022-09-12T03:54:09.394Z,13.54
2022-09-12T03:56:37.460Z,13.62
2022-09-12T03:59:06.739Z,13.56
2022-09-12T04:01:35.622Z,13.55
2022-09-12T04:04:04.092Z,13.55
2022-09-12T04:06:32.305Z,13.44
2022-09-12T04:09:01.907Z,13.55
2022-09-12T04:11:30.146Z,13.51
2022-09-12T04:13:58.205Z,13.53
2022-09-12T04:16:26.289Z,13.57
2022-09-12T04:18:55.479Z,13.62
2022-09-12T04:21:25.496Z,13.61
2022-09-12T04:23:54.023Z,13.50
2022-09-12T04:26:23.641Z,13.52
2022-09-12T04:28:54.915Z,13.60
2022-09-12T04:31:23.617Z,13.51
2022-09-12T04:33:55.303Z,13.60
2022-09-12T04:36:24.333Z,13.65
2022-09-12T04:38:52.645Z,13.61
2022-09-12T04:41:24.909Z,13.65
2022-09-12T04:43:54.635Z,13.73
2022-09-12T04:46:22.728Z,13.72
2022-09-12T04:48:54.622Z,13.79
2022-09-12T04:51:28.067Z,13.83
2022-09-12T04:53:57.709Z,13.90
2022-09-12T04:56:27.945Z,14.01
2022-09-12T04:58:58.257Z,13.93
2022-09-12T05:01:26.961Z,14.09
2022-09-12T05:03:56.003Z,14.10
2022-09-12T05:06:25.638Z,14.16
2022-09-12T05:08:56.018Z,14.18
2022-09-12T05:11:36.836Z,14.11
2022-09-12T05:14:15.743Z,14.18
2022-09-12T05:16:48.569Z,14.22
2022-09-12T05:19:17.260Z,14.32
2022-09-12T05:21:45.426Z,14.48
2022-09-12T05:24:13.457Z,14.46
2022-09-12T05:26:41.519Z,14.59
2022-09-12T05:29:09.615Z,14.68
2022-09-12T05:31:39.185Z,14.88
2022-09-12T05:34:07.302Z,14.87
2022-09-12T05:36:35.596Z,14.93
2022-09-12T05:39:04.623Z,14.94
2022-09-12T05:41:34.167Z,14.96
2022-09-12T05:44:04.372Z,14.94
2022-09-12T05:46:37.247Z,15.01
2022-09-12T05:49:08.536Z,14.80
2022-09-12T05:51:38.401Z,14.68
2022-09-12T05:54:08.891Z,14.86
2022-09-12T05:56:40.201Z,14.98
2022-09-12T05:59:13.079Z,15.13
2022-09-12T06:01:41.282Z,15.17
2022-09-12T06:04:10.837Z,15.37
2022-09-12T06:06:41.804Z,15.14
2022-09-12T06:09:12.819Z,15.33
2022-09-12T06:11:44.403Z,15.15
2022-09-12T06:14:15.029Z,15.33
2022-09-12T06:16:43.494Z,15.40
2022-09-12T06:19:17.020Z,15.38
2022-09-12T06:21:45.634Z,15.61
2022-09-12T06:24:14.067Z,15.39
2022-09-12T06:26:43.904Z,15.33
2022-09-12T06:29:13.415Z,15.62
2022-09-12T06:31:43.541Z,15.76
2022-09-12T06:34:14.039Z,15.70
2022-09-12T06:36:45.302Z,15.97
2022-09-12T06:39:14.693Z,16.02
2022-09-12T06:41:44.227Z,16.66
2022-09-12T06:44:16.132Z,16.55
2022-09-12T06:46:44.694Z,16.51
2022-09-12T06:49:13.471Z,16.99
2022-09-12T06:51:43.359Z,16.99
2022-09-12T06:54:13.985Z,16.79
2022-09-12T06:56:42.138Z,16.47
2022-09-12T06:59:10.589Z,16.42
2022-09-12T07:01:40.105Z,16.58
2022-09-12T07:04:08.643Z,16.26
2022-09-12T07:06:38.989Z,16.39
2022-09-12T07:09:10.617Z,16.65
2022-09-12T07:11:40.665Z,16.59
2022-09-12T07:14:11.379Z,16.70
2022-09-12T07:16:39.604Z,16.74
2022-09-12T07:19:09.390Z,16.58
2022-09-12T07:21:40.343Z,16.54
2022-09-12T07:24:11.286Z,16.69
2022-09-12T07:26:42.254Z,16.89
2022-09-12T07:32:05.915Z,17.03
2022-09-12T07:34:35.002Z,16.95
2022-09-12T07:37:03.145Z,17.12
2022-09-12T07:39:32.942Z,17.13
2022-09-12T07:42:01.555Z,17.38
2022-09-12T07:44:29.684Z,17.23
2022-09-12T07:46:57.802Z,17.30
2022-09-12T07:49:26.232Z,17.31
2022-09-12T07:51:55.293Z,17.12
2022-09-12T07:54:23.524Z,17.13
2022-09-12T07:56:53.080Z,17.28
2022-09-12T07:59:41.820Z,17.32
2022-09-12T08:02:17.249Z,17.37
2022-09-12T08:04:47.791Z,17.57
2022-09-12T08:07:15.915Z,17.62
2022-09-12T08:09:45.285Z,17.58
2022-09-12T08:12:16.571Z,17.46
2022-09-12T08:14:45.022Z,17.50
2022-09-12T08:17:14.329Z,17.56
2022-09-12T08:19:43.881Z,17.74
2022-09-12T08:22:12.213Z,17.68
2022-09-12T08:24:40.752Z,17.74
2022-09-12T08:27:09.330Z,17.82
2022-09-12T08:29:38.805Z,17.92
2022-09-12T08:32:07.286Z,18.07
2022-09-12T08:34:35.975Z,18.17
2022-09-12T08:37:04.180Z,18.20
2022-09-12T08:39:32.751Z,18.34
2022-09-12T08:42:03.812Z,18.42
2022-09-12T08:44:58.598Z,18.35
2022-09-12T08:47:30.016Z,18.38
2022-09-12T08:50:12.661Z,18.47
2022-09-12T08:52:48.395Z,18.57
2022-09-12T08:55:26.681Z,18.68
2022-09-12T08:57:55.831Z,18.70
2022-09-12T09:00:32.891Z,18.79
2022-09-12T09:03:26.904Z,19.07
2022-09-12T09:06:02.016Z,18.88
2022-09-12T09:08:58.800Z,18.96
2022-09-12T09:11:40.240Z,19.15
2022-09-12T09:14:52.243Z,19.29
2022-09-12T09:17:26.660Z,19.24
2022-09-12T09:20:02.600Z,19.45
2022-09-12T09:22:39.859Z,19.84
2022-09-12T09:25:14.612Z,19.74
2022-09-12T09:27:47.901Z,19.74
2022-09-12T09:30:17.921Z,19.76
2022-09-12T09:32:53.888Z,19.77
2022-09-12T09:35:36.238Z,19.77
2022-09-12T09:38:16.759Z,19.64
2022-09-12T09:40:51.019Z,19.93
2022-09-12T09:43:23.818Z,19.88
2022-09-12T09:45:53.993Z,19.75
2022-09-12T09:48:26.130Z,19.70
2022-09-12T09:50:54.284Z,19.83
2022-09-12T09:53:34.277Z,20.19
2022-09-12T09:56:07.164Z,19.99
2022-09-12T09:58:36.853Z,19.83
2022-09-12T10:01:07.385Z,20.00
2022-09-12T10:03:40.379Z,19.85
2022-09-12T10:06:23.235Z,20.13
2022-09-12T10:08:52.170Z,20.02
2022-09-12T10:11:22.972Z,20.09
2022-09-12T10:13:56.862Z,20.33
2022-09-12T10:16:27.888Z,20.25
2022-09-12T10:18:58.947Z,20.21
2022-09-12T10:21:32.804Z,19.98
2022-09-12T10:24:15.865Z,19.91
2022-09-12T10:26:53.255Z,19.78
2022-09-12T10:29:28.680Z,19.77
2022-09-12T10:32:07.214Z,19.85
2022-09-12T10:34:43.045Z,19.78
2022-09-12T10:37:18.839Z,19.76
2022-09-12T10:39:53.860Z,19.75
2022-09-12T10:42:50.789Z,19.96
2022-09-12T10:45:29.143Z,20.05
2022-09-12T10:48:02.068Z,20.00
2022-09-12T10:50:38.125Z,19.90
2022-09-12T10:53:20.415Z,19.76
2022-09-12T10:56:03.915Z,19.82
2022-09-12T10:58:53.695Z,19.96
2022-09-12T11:01:38.005Z,19.99
2022-09-12T11:04:47.818Z,20.33
2022-09-12T11:07:30.459Z,20.55
2022-09-12T11:10:08.383Z,20.60
2022-09-12T11:12:44.802Z,20.48
2022-09-12T11:15:36.463Z,20.32
2022-09-12T11:18:19.066Z,20.25
2022-09-12T11:21:10.581Z,20.18
2022-09-12T11:24:02.331Z,20.16
2022-09-12T11:26:44.812Z,19.98
2022-09-12T11:29:21.645Z,20.25
2022-09-12T11:32:11.500Z,20.49
2022-09-12T11:34:50.983Z,20.94
2022-09-12T11:37:44.129Z,20.89
2022-09-12T11:40:29.050Z,20.91
2022-09-12T11:43:04.455Z,20.72
2022-09-12T11:45:39.875Z,20.56
2022-09-12T11:48:14.300Z,20.26
2022-09-12T11:50:42.537Z,20.31
2022-09-12T11:53:18.160Z,20.26
2022-09-12T11:55:56.192Z,19.99
2022-09-12T11:58:29.261Z,19.91
2022-09-12T12:01:03.811Z,19.90
2022-09-12T12:03:38.307Z,19.76
2022-09-12T12:06:12.892Z,19.72
2022-09-12T12:08:42.748Z,19.75
2022-09-12T12:11:30.490Z,19.74
2022-09-12T12:14:02.219Z,19.91
2022-09-12T12:16:32.527Z,20.11
2022-09-12T12:19:02.270Z,20.26
2022-09-12T12:21:41.317Z,20.35
2022-09-12T12:24:19.094Z,20.36
2022-09-12T12:27:00.894Z,20.52
2022-09-12T12:29:45.970Z,20.69
2022-09-12T12:32:27.641Z,20.58
2022-09-12T12:35:18.548Z,20.54
2022-09-12T12:37:56.385Z,20.55
2022-09-12T12:40:30.308Z,20.62
2022-09-12T12:43:20.272Z,20.75
2022-09-12T12:46:02.573Z,21.02
2022-09-12T12:48:35.348Z,20.65
2022-09-12T12:51:32.020Z,20.74
2022-09-12T12:54:02.310Z,20.64
2022-09-12T12:56:41.438Z,20.58
2022-09-12T12:59:24.184Z,20.70
2022-09-12T13:01:56.802Z,20.83
2022-09-12T13:04:28.674Z,20.76
2022-09-12T13:07:05.768Z,20.63
2022-09-12T13:09:39.997Z,20.37
2022-09-12T13:12:11.078Z,20.11
2022-09-12T13:14:52.654Z,20.36
2022-09-12T13:17:29.261Z,20.46
2022-09-12T13:20:27.193Z,20.46
2022-09-12T13:22:56.790Z,20.49
2022-09-12T13:25:31.623Z,20.43
2022-09-12T13:28:03.647Z,20.42
2022-09-12T13:30:36.103Z,20.48
2022-09-12T13:33:17.849Z,20.51
2022-09-12T13:36:11.732Z,20.44
2022-09-12T13:38:54.467Z,20.52
2022-09-12T13:41:39.829Z,20.54
2022-09-12T13:44:13.541Z,20.66
2022-09-12T13:46:44.043Z,20.90
2022-09-12T13:49:23.972Z,21.00
2022-09-12T13:52:02.731Z,21.04
2022-09-12T13:54:32.430Z,21.08
2022-09-12T13:57:00.841Z,21.11
2022-09-12T13:59:29.188Z,21.11
2022-09-12T14:01:58.931Z,21.13
2022-09-12T14:04:45.272Z,21.42
2022-09-12T14:07:20.253Z,21.35
2022-09-12T14:09:55.820Z,21.59
2022-09-12T14:12:30.249Z,21.63
2022-09-12T14:14:58.530Z,21.67
2022-09-12T14:17:31.544Z,21.83
2022-09-12T14:20:03.364Z,21.66
2022-09-12T14:22:33.096Z,21.49
2022-09-12T14:25:02.122Z,21.59
2022-09-12T14:27:43.154Z,21.72
2022-09-12T14:30:24.815Z,21.81
2022-09-12T14:33:21.185Z,21.82
2022-09-12T14:35:51.575Z,21.87
2022-09-12T14:38:27.455Z,21.65
2022-09-12T14:41:02.502Z,21.46
2022-09-12T14:43:32.944Z,21.55
2022-09-12T14:46:04.553Z,21.60
2022-09-12T14:48:38.463Z,21.81
2022-09-12T14:51:09.723Z,21.68
2022-09-12T14:53:39.417Z,21.81
2022-09-12T14:56:10.504Z,21.73
2022-09-12T14:58:39.953Z,21.69
2022-09-12T15:01:24.825Z,21.74
2022-09-12T15:03:57.424Z,21.50
2022-09-12T15:06:29.792Z,21.55
2022-09-12T15:09:00.740Z,21.52
2022-09-12T15:11:29.118Z,21.55
2022-09-12T15:13:57.674Z,21.40
2022-09-12T15:16:26.047Z,21.22
2022-09-12T15:18:55.804Z,21.27
2022-09-12T15:21:23.844Z,21.31
2022-09-12T15:23:53.880Z,21.34
2022-09-12T15:26:24.120Z,21.09
2022-09-12T15:28:52.609Z,21.05
2022-09-12T15:31:26.723Z,21.05
2022-09-12T15:33:58.074Z,20.83
2022-09-12T15:36:28.583Z,20.83
2022-09-12T15:38:57.472Z,20.82
2022-09-12T15:41:30.708Z,20.80
2022-09-12T15:43:58.572Z,20.77
2022-09-12T15:46:26.694Z,20.69
2022-09-12T15:48:56.159Z,20.80
2022-09-12T15:51:24.788Z,20.75
2022-09-12T15:53:53.972Z,20.69
2022-09-12T15:56:23.511Z,20.70
2022-09-12T15:59:00.060Z,20.58
2022-09-12T16:01:29.907Z,20.57
2022-09-12T16:03:59.686Z,20.56
2022-09-12T16:06:33.560Z,20.57
2022-09-12T16:09:03.089Z,20.50
2022-09-12T16:11:31.243Z,20.44
2022-09-12T16:14:00.056Z,20.36
2022-09-12T16:16:28.147Z,20.29
2022-09-12T16:18:56.302Z,20.26
2022-09-12T16:21:26.561Z,20.22
2022-09-12T16:23:54.668Z,20.25
2022-09-12T16:26:23.191Z,20.18
2022-09-12T16:28:55.987Z,20.06
2022-09-12T16:31:25.203Z,20.09
2022-09-12T16:33:53.520Z,20.05
2022-09-12T16:36:23.037Z,19.93
2022-09-12T16:38:54.341Z,19.97
2022-09-12T16:41:26.315Z,19.89
2022-09-12T16:43:55.262Z,19.72
2022-09-12T16:46:25.322Z,19.70
2022-09-12T16:48:55.339Z,19.62
2022-09-12T16:51:26.140Z,19.44
2022-09-12T16:53:56.558Z,19.44
2022-09-12T16:56:25.347Z,19.36
2022-09-12T16:58:54.336Z,19.21
2022-09-12T17:01:24.596Z,19.23
2022-09-12T17:03:54.620Z,19.26
2022-09-12T17:06:23.202Z,19.15
2022-09-12T17:08:53.767Z,18.97
2022-09-12T17:11:24.939Z,18.86
2022-09-12T17:14:11.735Z,18.83
2022-09-12T17:16:42.825Z,18.86
2022-09-12T17:19:16.312Z,18.84
2022-09-12T17:21:45.510Z,18.71
2022-09-12T17:24:13.645Z,18.75
2022-09-12T17:26:43.522Z,18.73
2022-09-12T17:29:13.972Z,18.68
2022-09-12T17:31:42.844Z,18.64
2022-09-12T17:34:14.356Z,18.48
2022-09-12T17:36:44.328Z,18.41
2022-09-12T17:39:13.704Z,18.55
2022-09-12T17:41:43.820Z,18.51
2022-09-12T17:44:13.935Z,18.34
2022-09-12T17:46:42.623Z,18.45
2022-09-12T17:49:13.737Z,18.37
2022-09-12T17:51:43.558Z,18.24
2022-09-12T17:54:14.381Z,18.28
2022-09-12T17:56:47.406Z,18.23
2022-09-12T17:59:17.532Z,18.16
2022-09-12T18:02:03.086Z,18.10
2022-09-12T18:04:32.858Z,18.08
2022-09-12T18:07:04.174Z,18.02
2022-09-12T18:09:32.725Z,17.85
2022-09-12T18:12:07.019Z,17.83
2022-09-12T18:14:35.449Z,18.00
2022-09-12T18:17:03.633Z,17.87
2022-09-12T18:19:31.998Z,17.93
2022-09-12T18:22:00.076Z,17.69
2022-09-12T18:24:28.860Z,17.62
2022-09-12T18:26:57.964Z,17.49
2022-09-12T18:29:28.047Z,17.54
2022-09-12T18:31:56.320Z,17.67
2022-09-12T18:34:24.436Z,17.67
2022-09-12T18:36:54.930Z,17.41
2022-09-12T18:39:27.408Z,17.25
2022-09-12T18:41:56.192Z,17.01
2022-09-12T18:44:24.314Z,17.00
2022-09-12T18:46:53.950Z,17.24
2022-09-12T18:49:22.169Z,17.13
2022-09-12T18:51:50.507Z,17.00
2022-09-12T18:54:19.078Z,16.87
2022-09-12T18:56:47.769Z,16.84
2022-09-12T18:59:16.104Z,16.81
2022-09-12T19:01:45.159Z,16.70
2022-09-12T19:04:16.328Z,16.68
2022-09-12T19:06:46.394Z,16.54
2022-09-12T19:09:17.325Z,16.44
2022-09-12T19:11:49.851Z,16.54
2022-09-12T19:14:20.091Z,16.62
2022-09-12T19:16:48.210Z,16.46
2022-09-12T19:19:18.184Z,16.35
2022-09-12T19:21:47.039Z,16.36
2022-09-12T19:24:17.050Z,16.24
2022-09-12T19:26:45.708Z,16.21
2022-09-12T19:29:14.748Z,16.10
2022-09-12T19:31:43.350Z,16.06
2022-09-12T19:34:13.213Z,15.94
2022-09-12T19:36:45.903Z,16.00
2022-09-12T19:39:16.669Z,16.16
2022-09-12T19:41:45.639Z,16.12
2022-09-12T19:44:13.945Z,16.19
2022-09-12T19:46:42.197Z,16.28
2022-09-12T19:49:11.777Z,16.33
2022-09-12T19:51:39.982Z,16.35
2022-09-12T19:54:09.704Z,16.39
2022-09-12T19:56:38.273Z,16.32
2022-09-12T19:59:07.108Z,16.49
2022-09-12T20:01:37.064Z,16.50
2022-09-12T20:04:05.594Z,16.45
2022-09-12T20:06:33.668Z,16.40
2022-09-12T20:09:01.752Z,16.42
2022-09-12T20:11:31.567Z,16.37
2022-09-12T20:13:59.639Z,16.26
2022-09-12T20:16:29.614Z,16.14
2022-09-12T20:19:00.166Z,16.08
2022-09-12T20:21:32.886Z,16.17
2022-09-12T20:24:02.849Z,16.00
2022-09-12T20:26:32.661Z,15.97
2022-09-12T20:29:00.949Z,15.88
2022-09-12T20:31:30.347Z,15.94
2022-09-12T20:33:59.012Z,15.88
2022-09-12T20:36:27.569Z,15.96
2022-09-12T20:38:57.852Z,16.01
2022-09-12T20:41:27.108Z,15.91
2022-09-12T20:43:57.876Z,15.80
2022-09-12T20:46:27.679Z,15.56
2022-09-12T20:48:56.094Z,15.59
2022-09-12T20:51:24.654Z,15.55
2022-09-12T20:53:55.111Z,15.52
2022-09-12T20:56:23.655Z,15.43
2022-09-12T20:58:52.029Z,15.35
2022-09-12T21:01:21.800Z,15.23
2022-09-12T21:03:50.236Z,15.15
2022-09-12T21:06:19.291Z,14.98
2022-09-12T21:08:48.614Z,14.83
2022-09-12T21:11:17.702Z,14.96
2022-09-12T21:13:46.051Z,14.89
2022-09-12T21:16:16.010Z,14.96
2022-09-12T21:18:45.719Z,15.14
2022-09-12T21:21:15.771Z,15.18
2022-09-12T21:23:43.868Z,15.09
2022-09-12T21:26:12.285Z,14.86
2022-09-12T21:28:40.469Z,14.58
2022-09-12T21:31:08.725Z,14.46
2022-09-12T21:33:37.012Z,14.31
2022-09-12T21:36:07.351Z,14.18
2022-09-12T21:38:35.789Z,14.09
2022-09-12T21:41:05.878Z,14.00
2022-09-12T21:43:33.954Z,13.98
2022-09-12T21:46:02.968Z,13.99
2022-09-12T21:48:31.492Z,14.06
2022-09-12T21:50:59.619Z,14.01
2022-09-12T21:53:29.562Z,14.05
2022-09-12T21:56:02.318Z,14.03
2022-09-12T21:58:31.115Z,14.03
2022-09-12T22:00:59.770Z,14.17
2022-09-12T22:03:28.281Z,14.10
2022-09-12T22:06:00.137Z,14.24
2022-09-12T22:08:30.700Z,14.29
2022-09-12T22:11:00.922Z,14.23
2022-09-12T22:13:32.294Z,14.41
2022-09-12T22:16:03.104Z,14.28
2022-09-12T22:18:34.384Z,14.24
2022-09-12T22:21:04.414Z,14.21
2022-09-12T22:23:51.343Z,14.13
2022-09-12T22:26:19.546Z,14.06
2022-09-12T22:28:48.242Z,13.99
2022-09-12T22:31:17.073Z,13.90
2022-09-12T22:33:45.751Z,13.97
2022-09-12T22:36:14.768Z,13.91
2022-09-12T22:38:44.221Z,13.85
2022-09-12T22:41:13.200Z,13.73
2022-09-12T22:43:41.909Z,13.73
2022-09-12T22:46:10.917Z,13.77
2022-09-12T22:48:39.183Z,13.97
2022-09-12T22:51:07.853Z,13.81
2022-09-12T22:53:36.845Z,13.68
2022-09-12T22:56:07.018Z,13.49
2022-09-12T22:58:37.281Z,13.48
2022-09-12T23:01:06.827Z,13.43
2022-09-12T23:03:35.466Z,13.63
2022-09-12T23:06:04.277Z,13.47
2022-09-12T23:08:32.664Z,13.26
2022-09-12T23:11:04.292Z,13.24
2022-09-12T23:13:34.106Z,13.17
2022-09-12T23:16:04.742Z,13.25
2022-09-12T23:18:35.429Z,13.10
2022-09-12T23:21:06.076Z,13.05
2022-09-12T23:23:34.683Z,13.05
2022-09-12T23:26:04.528Z,13.00
2022-09-12T23:28:34.585Z,12.89
2022-09-12T23:31:03.821Z,12.81
2022-09-12T23:33:33.613Z,12.82
2022-09-12T23:36:02.299Z,12.81
2022-09-12T23:38:30.924Z,12.73
2022-09-12T23:40:59.561Z,12.73
2022-09-12T23:43:28.275Z,12.68
2022-09-12T23:45:58.000Z,12.59
2022-09-12T23:48:26.564Z,12.65
2022-09-12T23:50:55.110Z,12.55
2022-09-12T23:53:23.368Z,12.53
2022-09-12T23:55:51.506Z,12.42
2022-09-12T23:58:19.611Z,12.43
